createdAt,value
2023-04-06T00:02:07.553Z,99595.00
2023-04-06T00:04:35.912Z,99594.14
2023-04-06T00:07:03.864Z,99593.11
2023-04-06T00:09:31.698Z,99591.56
2023-04-06T00:11:59.611Z,99589.14
2023-04-06T00:14:27.449Z,99588.45
2023-04-06T00:16:56.736Z,99588.47
2023-04-06T00:19:24.709Z,99585.89
2023-04-06T00:21:52.659Z,99584.87
2023-04-06T00:24:20.639Z,99584.55
2023-04-06T00:26:48.575Z,99583.70
2023-04-06T00:29:16.457Z,99579.55
2023-04-06T00:31:44.392Z,99579.05
2023-04-06T00:34:12.327Z,99579.75
2023-04-06T00:36:40.462Z,99578.21
2023-04-06T00:39:08.655Z,99573.71
2023-04-06T00:41:36.770Z,99575.98
2023-04-06T00:44:04.718Z,99570.45
2023-04-06T00:46:32.629Z,99569.78
2023-04-06T00:49:00.562Z,99576.37
2023-04-06T00:51:28.716Z,99575.35
2023-04-06T00:53:56.865Z,99570.17
2023-04-06T00:56:27.096Z,99569.66
2023-04-06T00:58:55.357Z,99568.98
2023-04-06T01:01:24.462Z,99569.14
2023-04-06T01:03:54.000Z,99568.11
2023-04-06T01:06:22.548Z,99562.59
2023-04-06T01:08:58.079Z,99562.95
2023-04-06T01:11:27.272Z,99562.77
2023-04-06T01:13:56.697Z,99563.48
2023-04-06T01:16:44.552Z,99565.21
2023-04-06T01:19:15.961Z,99560.03
2023-04-06T01:21:47.782Z,99559.34
2023-04-06T01:24:40.916Z,99562.81
2023-04-06T01:27:15.985Z,99564.20
2023-04-06T01:30:05.265Z,99561.79
2023-04-06T01:32:42.198Z,99565.77
2023-04-06T01:35:11.348Z,99561.98
2023-04-06T01:37:44.650Z,99562.84
2023-04-06T01:40:14.785Z,99564.25
2023-04-06T01:42:49.542Z,99560.46
2023-04-06T01:45:22.349Z,99559.77
2023-04-06T01:47:51.400Z,99561.50
2023-04-06T01:50:22.256Z,99561.86
2023-04-06T01:52:51.001Z,99565.85
2023-04-06T01:55:19.003Z,99562.91
2023-04-06T01:58:06.965Z,99559.98
2023-04-06T02:00:37.651Z,99558.10
2023-04-06T02:03:05.772Z,99558.80
2023-04-06T02:05:38.821Z,99561.91
2023-04-06T02:08:16.414Z,99562.09
2023-04-06T02:10:44.379Z,99563.13
2023-04-06T02:13:19.819Z,99566.93
2023-04-06T02:15:49.771Z,99568.13
2023-04-06T02:18:19.202Z,99566.23
2023-04-06T02:20:47.326Z,99564.70
2023-04-06T02:23:15.719Z,99566.77
2023-04-06T02:25:43.664Z,99563.16
2023-04-06T02:28:11.596Z,99564.02
2023-04-06T02:30:40.443Z,99566.28
2023-04-06T02:33:08.454Z,99564.39
2023-04-06T02:35:42.669Z,99565.25
2023-04-06T02:38:10.996Z,99566.30
2023-04-06T02:40:38.869Z,99569.23
2023-04-06T02:43:26.972Z,99566.31
2023-04-06T02:46:01.663Z,99569.95
2023-04-06T02:48:30.059Z,99573.58
2023-04-06T02:50:57.955Z,99573.77
2023-04-06T02:53:25.856Z,99569.97
2023-04-06T02:55:53.826Z,99572.22
2023-04-06T02:58:21.807Z,99576.89
2023-04-06T03:00:53.502Z,99573.96
2023-04-06T03:03:22.427Z,99572.92
2023-04-06T03:05:50.712Z,99576.55
2023-04-06T03:08:21.451Z,99575.34
2023-04-06T03:10:49.277Z,99577.94
2023-04-06T03:13:17.945Z,99574.33
2023-04-06T03:15:51.891Z,99573.97
2023-04-06T03:18:26.077Z,99574.50
2023-04-06T03:20:55.558Z,99574.67
2023-04-06T03:23:27.128Z,99572.60
2023-04-06T03:25:58.794Z,99574.67
2023-04-06T03:28:26.669Z,99578.14
2023-04-06T03:30:57.432Z,99581.41
2023-04-06T03:33:45.633Z,99587.11
2023-04-06T03:36:21.648Z,99590.55
2023-04-06T03:38:49.814Z,99596.95
2023-04-06T03:41:17.754Z,99600.08
2023-04-06T03:43:52.060Z,99603.70
2023-04-06T03:46:19.985Z,99609.40
2023-04-06T03:48:50.329Z,99616.66
2023-04-06T03:51:18.822Z,99614.58
2023-04-06T03:53:46.776Z,99615.77
2023-04-06T03:56:14.700Z,99619.05
2023-04-06T03:58:42.538Z,99621.80
2023-04-06T04:01:10.413Z,99622.84
2023-04-06T04:03:38.365Z,99622.15
2023-04-06T04:06:06.822Z,99621.80
2023-04-06T04:08:36.389Z,99631.30
2023-04-06T04:11:04.321Z,99628.17
2023-04-06T04:13:32.619Z,99626.80
2023-04-06T04:16:01.505Z,99629.23
2023-04-06T04:18:29.365Z,99629.91
2023-04-06T04:20:57.225Z,99631.27
2023-04-06T04:23:25.507Z,99633.02
2023-04-06T04:25:53.411Z,99631.12
2023-04-06T04:28:21.463Z,99629.91
2023-04-06T04:30:49.587Z,99627.14
2023-04-06T04:33:17.479Z,99625.60
2023-04-06T04:35:45.912Z,99623.18
2023-04-06T04:38:16.560Z,99624.39
2023-04-06T04:40:44.940Z,99624.91
2023-04-06T04:43:13.269Z,99622.33
2023-04-06T04:45:41.285Z,99622.68
2023-04-06T04:48:23.488Z,99624.60
2023-04-06T04:50:56.270Z,99622.00
2023-04-06T04:53:26.096Z,99624.74
2023-04-06T04:55:56.388Z,99625.77
2023-04-06T04:58:24.914Z,99626.77
2023-04-06T05:00:56.832Z,99618.41
2023-04-06T05:03:27.796Z,99617.27
2023-04-06T05:06:06.862Z,99616.81
2023-04-06T05:08:36.866Z,99615.81
2023-04-06T05:11:05.482Z,99615.33
2023-04-06T05:13:37.053Z,99612.56
2023-04-06T05:16:09.821Z,99616.02
2023-04-06T05:18:37.811Z,99613.92
2023-04-06T05:21:06.413Z,99611.81
2023-04-06T05:23:41.293Z,99608.46
2023-04-06T05:26:09.237Z,99604.55
2023-04-06T05:28:37.588Z,99603.89
2023-04-06T05:31:06.676Z,99603.41
2023-04-06T05:33:41.089Z,99607.76
2023-04-06T05:36:15.367Z,99611.67
2023-04-06T05:38:45.330Z,99607.00
2023-04-06T05:41:30.095Z,99605.58
2023-04-06T05:43:58.092Z,99602.79
2023-04-06T05:46:26.419Z,99600.02
2023-04-06T05:48:55.080Z,99606.09
2023-04-06T05:51:26.079Z,99600.36
2023-04-06T05:53:54.005Z,99603.92
2023-04-06T05:56:22.458Z,99604.11
2023-04-06T05:58:50.586Z,99600.59
2023-04-06T06:01:23.131Z,99601.46
2023-04-06T06:03:50.950Z,99595.52
2023-04-06T06:06:19.584Z,99588.42
2023-04-06T06:09:06.365Z,99587.14
2023-04-06T06:11:38.306Z,99588.38
2023-04-06T06:14:07.137Z,99586.31
2023-04-06T06:16:37.371Z,99584.83
2023-04-06T06:19:05.833Z,99585.52
2023-04-06T06:21:34.287Z,99586.35
2023-04-06T06:24:03.055Z,99587.15
2023-04-06T06:26:31.031Z,99587.90
2023-04-06T06:28:59.838Z,99587.78
2023-04-06T06:31:27.733Z,99587.77
2023-04-06T06:33:55.879Z,99587.60
2023-04-06T06:36:23.970Z,99584.88
2023-04-06T06:38:52.188Z,99582.65
2023-04-06T06:41:20.878Z,99585.48
2023-04-06T06:43:49.015Z,99589.11
2023-04-06T06:46:16.981Z,99595.95
2023-04-06T06:48:44.919Z,99594.59
2023-04-06T06:51:13.130Z,99599.42
2023-04-06T06:53:42.050Z,99603.69
2023-04-06T06:56:09.949Z,99604.14
2023-04-06T06:58:37.975Z,99605.77
2023-04-06T07:01:06.335Z,99608.75
2023-04-06T07:03:35.490Z,99610.48
2023-04-06T07:06:03.488Z,99608.80
2023-04-06T07:08:31.480Z,99607.05
2023-04-06T07:10:59.367Z,99606.89
2023-04-06T07:13:28.550Z,99609.58
2023-04-06T07:15:58.800Z,99609.15
2023-04-06T07:18:26.846Z,99617.30
2023-04-06T07:20:54.837Z,99616.39
2023-04-06T07:23:22.866Z,99614.41
2023-04-06T07:25:53.329Z,99609.59
2023-04-06T07:28:21.380Z,99615.00
2023-04-06T07:30:49.445Z,99616.73
2023-04-06T07:33:17.841Z,99620.39
2023-04-06T07:35:46.489Z,99621.09
2023-04-06T07:38:15.042Z,99619.09
2023-04-06T07:40:43.233Z,99625.30
2023-04-06T07:43:11.102Z,99627.27
2023-04-06T07:45:39.299Z,99625.36
2023-04-06T07:48:07.802Z,99626.34
2023-04-06T07:50:36.230Z,99630.94
2023-04-06T07:53:04.573Z,99630.48
2023-04-06T07:55:32.624Z,99632.15
2023-04-06T07:58:00.482Z,99628.89
2023-04-06T08:00:28.445Z,99629.09
2023-04-06T08:02:56.558Z,99623.43
2023-04-06T08:05:24.638Z,99620.34
2023-04-06T08:07:52.637Z,99619.20
2023-04-06T08:10:20.506Z,99618.64
2023-04-06T08:12:48.340Z,99616.12
2023-04-06T08:15:16.396Z,99617.71
2023-04-06T08:17:44.234Z,99622.05
2023-04-06T08:20:12.239Z,99622.45
2023-04-06T08:22:40.265Z,99618.61
2023-04-06T08:25:08.466Z,99620.55
2023-04-06T08:27:36.376Z,99615.73
2023-04-06T08:30:04.453Z,99615.02
2023-04-06T08:32:32.356Z,99610.38
2023-04-06T08:35:00.255Z,99613.36
2023-04-06T08:37:28.415Z,99615.41
2023-04-06T08:39:56.242Z,99618.48
2023-04-06T08:42:27.193Z,99616.23
2023-04-06T08:44:56.678Z,99613.24
2023-04-06T08:47:25.106Z,99616.10
2023-04-06T08:49:54.802Z,99617.73
2023-04-06T08:52:23.696Z,99612.92
2023-04-06T08:54:51.661Z,99616.42
2023-04-06T08:57:21.035Z,99614.75
2023-04-06T08:59:49.431Z,99617.42
2023-04-06T09:02:19.584Z,99614.52
2023-04-06T09:04:50.257Z,99611.75
2023-04-06T09:07:18.254Z,99604.57
2023-04-06T09:09:48.953Z,99607.92
2023-04-06T09:12:28.742Z,99606.96
2023-04-06T09:14:57.708Z,99607.77
2023-04-06T09:17:28.675Z,99602.70
2023-04-06T09:19:57.777Z,99599.70
2023-04-06T09:22:26.786Z,99601.41
2023-04-06T09:24:55.297Z,99604.61
2023-04-06T09:27:36.975Z,99601.84
2023-04-06T09:30:05.354Z,99596.87
2023-04-06T09:32:33.483Z,99594.86
2023-04-06T09:35:08.821Z,99594.81
2023-04-06T09:37:36.898Z,99593.55
2023-04-06T09:40:08.586Z,99595.10
2023-04-06T09:42:37.055Z,99595.40
2023-04-06T09:45:05.541Z,99595.36
2023-04-06T09:47:36.815Z,99595.05
2023-04-06T09:50:05.282Z,99593.94
2023-04-06T09:52:38.491Z,99591.23
2023-04-06T09:55:08.904Z,99591.20
2023-04-06T09:57:53.896Z,99590.13
2023-04-06T10:00:24.344Z,99590.70
2023-04-06T10:03:00.395Z,99590.26
2023-04-06T10:05:28.484Z,99593.57
2023-04-06T10:08:00.752Z,99600.92
2023-04-06T10:10:29.988Z,99600.46
2023-04-06T10:12:59.033Z,99591.43
2023-04-06T10:15:29.519Z,99590.10
2023-04-06T10:17:59.290Z,99591.29
2023-04-06T10:20:42.512Z,99590.39
2023-04-06T10:23:22.000Z,99591.42
2023-04-06T10:26:00.397Z,99590.30
2023-04-06T10:28:36.774Z,99585.77
2023-04-06T10:31:07.713Z,99585.13
2023-04-06T10:33:36.202Z,99594.42
2023-04-06T10:36:15.084Z,99585.41
2023-04-06T10:38:43.701Z,99584.17
2023-04-06T10:41:13.037Z,99579.56
2023-04-06T10:43:42.965Z,99584.14
2023-04-06T10:46:11.605Z,99585.80
2023-04-06T10:48:44.559Z,99579.83
2023-04-06T10:51:14.420Z,99572.02
2023-04-06T10:53:50.720Z,99575.92
2023-04-06T10:56:22.371Z,99575.38
2023-04-06T10:58:56.713Z,99573.28
2023-04-06T11:01:28.856Z,99580.63
2023-04-06T11:04:00.475Z,99573.44
2023-04-06T11:06:32.030Z,99568.91
2023-04-06T11:09:00.254Z,99562.98
2023-04-06T11:11:28.310Z,99567.36
2023-04-06T11:13:58.201Z,99561.08
2023-04-06T11:16:27.262Z,99558.36
2023-04-06T11:18:57.776Z,99559.95
2023-04-06T11:21:48.327Z,99570.10
2023-04-06T11:24:21.754Z,99566.35
2023-04-06T11:26:56.192Z,99564.95
2023-04-06T11:29:26.624Z,99558.14
2023-04-06T11:32:00.159Z,99555.83
2023-04-06T11:34:30.362Z,99553.34
2023-04-06T11:37:00.398Z,99543.66
2023-04-06T11:39:29.986Z,99533.54
2023-04-06T11:42:08.421Z,99536.25
2023-04-06T11:44:42.716Z,99534.70
2023-04-06T11:47:11.269Z,99531.83
2023-04-06T11:49:40.798Z,99538.13
2023-04-06T11:52:23.777Z,99535.21
2023-04-06T11:54:53.743Z,99535.96
2023-04-06T11:57:26.253Z,99532.37
2023-04-06T11:59:54.281Z,99527.84
2023-04-06T12:02:22.321Z,99526.58
2023-04-06T12:04:50.535Z,99527.20
2023-04-06T12:07:18.445Z,99523.35
2023-04-06T12:09:46.439Z,99522.02
2023-04-06T12:12:14.285Z,99515.33
2023-04-06T12:14:42.143Z,99512.50
2023-04-06T12:17:10.010Z,99514.18
2023-04-06T12:19:37.993Z,99513.33
2023-04-06T12:22:06.255Z,99517.55
2023-04-06T12:24:34.137Z,99512.77
2023-04-06T12:27:09.127Z,99511.32
2023-04-06T12:29:39.494Z,99510.04
2023-04-06T12:32:07.638Z,99508.91
2023-04-06T12:34:35.819Z,99497.80
2023-04-06T12:37:03.715Z,99501.26
2023-04-06T12:39:31.937Z,99497.14
2023-04-06T12:41:59.918Z,99492.67
2023-04-06T12:44:27.939Z,99494.27
2023-04-06T12:46:56.544Z,99495.30
2023-04-06T12:49:24.622Z,99493.31
2023-04-06T12:51:52.536Z,99488.63
2023-04-06T12:54:20.995Z,99488.90
2023-04-06T12:56:48.853Z,99490.48
2023-04-06T12:59:17.468Z,99488.83
2023-04-06T13:01:45.758Z,99489.16
2023-04-06T13:04:13.730Z,99486.35
2023-04-06T13:06:41.568Z,99480.26
2023-04-06T13:09:09.406Z,99485.88
2023-04-06T13:11:37.238Z,99492.00
2023-04-06T13:14:05.090Z,99492.18
2023-04-06T13:16:33.350Z,99489.27
2023-04-06T13:19:02.440Z,99476.09
2023-04-06T13:21:31.460Z,99468.80
2023-04-06T13:23:59.396Z,99458.64
2023-04-06T13:26:27.358Z,99463.35
2023-04-06T13:28:57.635Z,99458.23
2023-04-06T13:31:25.610Z,99453.35
2023-04-06T13:33:53.514Z,99459.46
2023-04-06T13:36:21.784Z,99463.73
2023-04-06T13:38:49.634Z,99457.06
2023-04-06T13:41:24.704Z,99454.16
2023-04-06T13:43:52.812Z,99447.41
2023-04-06T13:46:21.064Z,99437.79
2023-04-06T13:48:49.124Z,99433.27
2023-04-06T13:51:17.127Z,99430.14
2023-04-06T13:53:45.030Z,99430.55
2023-04-06T13:56:12.988Z,99425.84
2023-04-06T13:58:41.364Z,99431.67
2023-04-06T14:01:11.381Z,99431.89
2023-04-06T14:03:42.976Z,99432.37
2023-04-06T14:06:20.874Z,99433.24
2023-04-06T14:08:55.808Z,99428.47
2023-04-06T14:11:23.965Z,99418.59
2023-04-06T14:13:51.878Z,99413.91
2023-04-06T14:16:20.738Z,99414.94
2023-04-06T14:18:48.714Z,99416.75
2023-04-06T14:21:16.557Z,99408.45
2023-04-06T14:23:44.775Z,99408.11
2023-04-06T14:26:12.729Z,99412.42
2023-04-06T14:28:40.807Z,99415.84
2023-04-06T14:31:16.952Z,99418.29
2023-04-06T14:33:46.107Z,99417.76
2023-04-06T14:36:14.240Z,99411.80
2023-04-06T14:38:44.167Z,99415.23
2023-04-06T14:41:19.854Z,99410.36
2023-04-06T14:43:48.556Z,99409.33
2023-04-06T14:46:19.148Z,99407.48
2023-04-06T14:48:48.131Z,99415.61
2023-04-06T14:51:16.124Z,99416.44
2023-04-06T14:53:44.632Z,99417.42
2023-04-06T14:56:12.700Z,99417.50
2023-04-06T14:58:40.502Z,99421.84
2023-04-06T15:01:09.431Z,99413.31
2023-04-06T15:03:37.466Z,99413.70
2023-04-06T15:06:06.515Z,99417.63
2023-04-06T15:08:35.431Z,99421.67
2023-04-06T15:11:03.426Z,99408.82
2023-04-06T15:13:31.368Z,99395.58
2023-04-06T15:16:01.286Z,99395.37
2023-04-06T15:18:29.887Z,99393.06
2023-04-06T15:20:57.933Z,99390.95
2023-04-06T15:23:26.377Z,99393.02
2023-04-06T15:25:54.186Z,99396.95
2023-04-06T15:28:22.038Z,99390.33
2023-04-06T15:30:50.150Z,99394.20
2023-04-06T15:33:20.500Z,99392.83
2023-04-06T15:35:48.882Z,99395.76
2023-04-06T15:38:16.752Z,99396.80
2023-04-06T15:40:46.639Z,99400.05
2023-04-06T15:43:15.520Z,99399.89
2023-04-06T15:45:43.642Z,99405.13
2023-04-06T15:48:11.612Z,99405.70
2023-04-06T15:50:39.537Z,99404.24
2023-04-06T15:53:07.515Z,99397.99
2023-04-06T15:55:35.582Z,99396.48
2023-04-06T15:58:03.570Z,99399.36
2023-04-06T16:00:31.635Z,99401.42
2023-04-06T16:02:59.757Z,99393.77
2023-04-06T16:05:34.008Z,99393.56
2023-04-06T16:08:02.604Z,99396.64
2023-04-06T16:10:30.724Z,99398.91
2023-04-06T16:12:58.717Z,99395.80
2023-04-06T16:15:26.592Z,99399.09
2023-04-06T16:17:54.640Z,99400.09
2023-04-06T16:20:22.768Z,99398.91
2023-04-06T16:22:51.098Z,99395.19
2023-04-06T16:25:19.321Z,99395.77
2023-04-06T16:27:47.231Z,99397.86
2023-04-06T16:30:15.269Z,99394.39
2023-04-06T16:32:44.549Z,99395.15
2023-04-06T16:35:12.453Z,99397.08
2023-04-06T16:37:40.398Z,99395.05
2023-04-06T16:40:10.179Z,99397.85
2023-04-06T16:42:38.157Z,99396.89
2023-04-06T16:45:06.850Z,99400.15
2023-04-06T16:47:34.912Z,99396.37
2023-04-06T16:50:05.340Z,99397.42
2023-04-06T16:52:34.607Z,99396.16
2023-04-06T16:55:02.764Z,99394.88
2023-04-06T16:57:30.769Z,99392.25
2023-04-06T16:59:58.754Z,99391.41
2023-04-06T17:02:26.862Z,99391.20
2023-04-06T17:04:54.793Z,99392.50
2023-04-06T17:07:26.505Z,99390.02
2023-04-06T17:09:54.518Z,99390.82
2023-04-06T17:12:22.353Z,99386.62
2023-04-06T17:14:50.946Z,99387.83
2023-04-06T17:17:18.934Z,99390.23
2023-04-06T17:19:47.000Z,99393.05
2023-04-06T17:22:20.518Z,99397.36
2023-04-06T17:24:48.853Z,99397.59
2023-04-06T17:27:16.823Z,99398.39
2023-04-06T17:29:44.946Z,99403.48
2023-04-06T17:32:13.073Z,99402.43
2023-04-06T17:34:40.928Z,99403.29
2023-04-06T17:37:08.903Z,99404.67
2023-04-06T17:39:37.074Z,99407.27
2023-04-06T17:42:05.253Z,99406.93
2023-04-06T17:44:34.011Z,99410.13
2023-04-06T17:47:01.821Z,99413.16
2023-04-06T17:49:31.282Z,99415.59
2023-04-06T17:51:59.159Z,99421.04
2023-04-06T17:54:27.044Z,99420.88
2023-04-06T17:56:55.901Z,99419.70
2023-04-06T17:59:24.248Z,99419.92
2023-04-06T18:01:52.841Z,99419.73
2023-04-06T18:04:21.356Z,99417.35
2023-04-06T18:06:49.539Z,99413.92
2023-04-06T18:09:17.970Z,99419.09
2023-04-06T18:11:46.038Z,99419.77
2023-04-06T18:14:15.968Z,99421.58
2023-04-06T18:16:44.161Z,99419.02
2023-04-06T18:19:12.196Z,99418.90
2023-04-06T18:21:40.002Z,99423.16
2023-04-06T18:24:12.195Z,99420.48
2023-04-06T18:26:40.663Z,99419.56
2023-04-06T18:29:08.623Z,99422.80
2023-04-06T18:34:09.833Z,99425.95
2023-04-06T18:36:38.056Z,99426.20
2023-04-06T18:39:06.474Z,99423.65
2023-04-06T18:41:35.314Z,99422.36
2023-04-06T18:44:03.651Z,99426.13
2023-04-06T18:46:31.897Z,99424.33
2023-04-06T18:49:00.128Z,99427.52
2023-04-06T18:51:30.009Z,99428.98
2023-04-06T18:53:58.393Z,99429.90
2023-04-06T18:56:27.224Z,99433.77
2023-04-06T18:58:56.040Z,99432.78
2023-04-06T19:01:27.759Z,99435.12
2023-04-06T19:03:57.300Z,99434.73
2023-04-06T19:06:28.786Z,99435.70
2023-04-06T19:08:57.274Z,99432.66
2023-04-06T19:11:26.209Z,99432.39
2023-04-06T19:13:54.842Z,99433.35
2023-04-06T19:16:22.820Z,99430.11
2023-04-06T19:18:51.157Z,99428.77
2023-04-06T19:21:24.424Z,99432.30
2023-04-06T19:23:57.242Z,99434.76
2023-04-06T19:26:30.275Z,99434.74
2023-04-06T19:28:58.215Z,99435.59
2023-04-06T19:31:28.023Z,99438.32
2023-04-06T19:33:57.532Z,99433.55
2023-04-06T19:36:26.094Z,99434.52
2023-04-06T19:38:54.641Z,99431.13
2023-04-06T19:41:22.568Z,99428.64
2023-04-06T19:43:51.309Z,99427.73
2023-04-06T19:46:19.869Z,99424.55
2023-04-06T19:48:47.766Z,99424.52
2023-04-06T19:51:15.791Z,99425.44
2023-04-06T19:53:43.647Z,99426.58
2023-04-06T19:56:11.551Z,99422.34
2023-04-06T19:58:39.527Z,99424.38
2023-04-06T20:01:07.436Z,99422.57
2023-04-06T20:03:36.532Z,99424.61
2023-04-06T20:06:04.598Z,99424.09
2023-04-06T20:08:32.548Z,99422.17
2023-04-06T20:11:05.093Z,99418.85
2023-04-06T20:13:33.489Z,99423.20
2023-04-06T20:16:01.329Z,99424.42
2023-04-06T20:18:30.996Z,99425.79
2023-04-06T20:20:59.653Z,99424.05
2023-04-06T20:23:27.489Z,99418.83
2023-04-06T20:25:55.329Z,99420.56
2023-04-06T20:28:24.245Z,99423.51
2023-04-06T20:30:53.131Z,99420.48
2023-04-06T20:33:22.186Z,99412.56
2023-04-06T20:35:57.902Z,99411.83
2023-04-06T20:38:33.293Z,99413.73
2023-04-06T20:41:02.266Z,99417.67
2023-04-06T20:43:31.996Z,99411.36
2023-04-06T20:46:02.199Z,99412.27
2023-04-06T20:48:33.514Z,99408.64
2023-04-06T20:51:04.025Z,99407.39
2023-04-06T20:53:32.070Z,99408.23
2023-04-06T20:56:02.187Z,99405.81
2023-04-06T20:58:30.094Z,99402.83
2023-04-06T21:00:57.952Z,99402.98
2023-04-06T21:03:26.175Z,99403.16
2023-04-06T21:05:57.223Z,99401.95
2023-04-06T21:08:25.286Z,99401.42
2023-04-06T21:10:53.113Z,99399.81
2023-04-06T21:13:20.989Z,99395.95
2023-04-06T21:15:48.980Z,99393.83
2023-04-06T21:18:17.158Z,99394.72
2023-04-06T21:20:45.147Z,99392.86
2023-04-06T21:23:13.039Z,99393.77
2023-04-06T21:25:41.013Z,99395.72
2023-04-06T21:28:08.902Z,99393.05
2023-04-06T21:30:37.496Z,99390.17
2023-04-06T21:33:06.326Z,99395.54
2023-04-06T21:35:38.631Z,99390.86
2023-04-06T21:38:07.140Z,99390.16
2023-04-06T21:40:35.758Z,99384.53
2023-04-06T21:43:04.329Z,99380.35
2023-04-06T21:45:33.040Z,99380.62
2023-04-06T21:48:01.016Z,99377.92
2023-04-06T21:50:28.950Z,99377.55
2023-04-06T21:52:56.883Z,99375.48
2023-04-06T21:55:24.826Z,99370.45
2023-04-06T21:57:52.677Z,99368.99
2023-04-06T22:00:20.846Z,99363.34
2023-04-06T22:02:48.935Z,99360.88
2023-04-06T22:05:17.235Z,99359.41
2023-04-06T22:07:46.658Z,99355.39
2023-04-06T22:10:14.471Z,99356.63
2023-04-06T22:12:42.270Z,99357.88
2023-04-06T22:15:12.936Z,99352.59
2023-04-06T22:17:40.936Z,99352.44
2023-04-06T22:20:09.054Z,99354.36
2023-04-06T22:22:36.943Z,99354.02
2023-04-06T22:25:07.094Z,99356.52
2023-04-06T22:27:34.947Z,99356.23
2023-04-06T22:30:04.049Z,99355.67
2023-04-06T22:32:31.919Z,99355.39
2023-04-06T22:34:59.724Z,99355.54
2023-04-06T22:37:27.674Z,99350.45
2023-04-06T22:39:55.876Z,99345.67
2023-04-06T22:42:23.731Z,99343.34
2023-04-06T22:44:51.582Z,99344.12
2023-04-06T22:47:19.438Z,99346.08
2023-04-06T22:49:47.283Z,99344.30
2023-04-06T22:52:15.506Z,99345.70
2023-04-06T22:54:43.478Z,99345.66
2023-04-06T22:57:11.305Z,99343.77
2023-04-06T22:59:39.210Z,99342.04
2023-04-06T23:02:07.332Z,99337.29
2023-04-06T23:04:35.392Z,99332.20
2023-04-06T23:07:03.237Z,99334.27
2023-04-06T23:09:31.130Z,99332.36
2023-04-06T23:11:58.910Z,99329.79
2023-04-06T23:14:26.884Z,99329.59
2023-04-06T23:16:54.725Z,99325.34
2023-04-06T23:19:22.606Z,99323.91
2023-04-06T23:21:50.773Z,99323.95
2023-04-06T23:24:18.605Z,99321.00
2023-04-06T23:26:46.469Z,99323.22
2023-04-06T23:29:14.320Z,99320.30
2023-04-06T23:31:42.166Z,99319.56
2023-04-06T23:34:10.008Z,99316.59
2023-04-06T23:36:37.827Z,99315.09
2023-04-06T23:39:05.855Z,99314.41
2023-04-06T23:41:33.697Z,99314.02
2023-04-06T23:44:01.541Z,99314.02
2023-04-06T23:46:29.505Z,99308.48
2023-04-06T23:48:57.410Z,99307.23
2023-04-06T23:51:25.228Z,99308.14
2023-04-06T23:53:53.081Z,99307.95
2023-04-06T23:56:21.109Z,99308.99
2023-04-06T23:58:48.985Z,99308.46
